Aviation Digital Data Service (ADDS)

Output produced by METARs form (0727 UTC 06 March 2015)
found at http://www.aviationweather.gov/adds/metars/
 
KBFD 060653Z AUTO 31004KT 10SM OVC012 M17/M20 A3034 RMK AO2 SLP320 T11721200
KBFD 060553Z AUTO 30004KT 10SM OVC013 M17/M20 A3032 RMK AO2 SLPNO T11671200 11144 21172 58001
KBFD 060507Z AUTO 31008KT 10SM OVC014 M17/M21 A3033 RMK AO2 T11671206
KBFD 060453Z AUTO 31007KT 9SM OVC015 M17/M21 A3033 RMK AO2 SLPNO T11671206 410331167
KBFD 060353Z AUTO 31011KT 8SM OVC017 M16/M20 A3033 RMK AO2 SLP318 T11611200
KBFD 060253Z AUTO 29008KT 9SM OVC018 M17/M21 A3033 RMK AO2 SLP317 T11671206 51026
KBFD 060235Z AUTO 29006KT 9SM BKN017 M17/M21 A3032 RMK AO2 T11671211
KBFD 060153Z AUTO 29008KT 10SM CLR M17/M22 A3030 RMK AO2 SLP310 T11671217
KBFD 060053Z AUTO 30010KT 10SM CLR M16/M21 A3028 RMK AO2 SLP301 T11561211
KBFD 052353Z AUTO 31009KT 10SM CLR M14/M21 A3024 RMK AO2 SLP285 6//// T11441211 11111 21144 53033
KBFD 052253Z AUTO 31011KT 10SM CLR M13/M21 A3019 RMK AO2 SLP267 T11281206
KBFD 052153Z AUTO 29008G16KT 10SM CLR M12/M21 A3016 RMK AO2 SLP252 T11171211
KBFD 052053Z AUTO 30011KT 10SM FEW100 SCT110 M12/M21 A3014 RMK AO2 SLP242 6//// T11171206 53004
KBFD 051953Z AUTO 31011KT 10SM OVC095 M12/M21 A3013 RMK AO2 SLP239 T11221211
KBFD 051853Z AUTO 34009KT 10SM BKN110 M12/M20 A3011 RMK AO2 SLP232 T11221200
KBFD 051753Z AUTO A3012 RMK AO2 SLPNO 6//// 50008 PWINO FZRANO PNO $
KBFD 051653Z AUTO A3013 RMK AO2 SLPNO PWINO FZRANO PNO $
KBFD 051553Z AUTO 35007KT 10SM CLR M13/M21 A3013 RMK AO2 SLP235 T11331211 $
KBFD 051453Z AUTO 34010KT 10SM SCT100 M14/M22 A3010 RMK AO2 PRESFR SLP227 T11391217 50012
KBFD 051353Z AUTO 34011KT 10SM FEW100 M13/M21 A3013 RMK AO2 SLP235 T11331211
KBFD 051253Z AUTO 34007KT 10SM OVC100 M13/M21 A3010 RMK AO2 PRESRR SLP226 T11331206
KBFD 051153Z AUTO 33011KT 10SM OVC095 M13/M21 A3006 RMK AO2 SLP211 60000 T11281206 11044 21128 50018
KBFD 051107Z AUTO 33013KT 10SM SCT026 OVC085 M12/M19 A3008 RMK AO2 T11221189
KBFD 051053Z AUTO 33013KT 10SM BKN025 OVC090 M12/M19 A3008 RMK AO2 SNE28 SLP216 P0000 T11221189
KBFD 050953Z AUTO 33012KT 4SM -SN FEW012 OVC022 M11/M16 A3006 RMK AO2 UPB45E47SNE45B47 PRESRR SLP209 P0000 T11111156
KBFD 050941Z AUTO 33013KT 6SM -SN FEW012 OVC024 M11/M15 A3005 RMK AO2 P0000 T11111150
KBFD 050930Z AUTO 34014G20KT 3SM -SN BKN012 OVC024 M11/M14 A3004 RMK AO2 P0000 T11061139
KBFD 050919Z AUTO 34012KT 1 1/4SM -SN BKN012 OVC022 M10/M13 A3003 RMK AO2 P0000 T11001133
KBFD 050912Z AUTO 34011KT 1 1/2SM -SN SCT012 BKN017 OVC022 M09/M13 A3004 RMK AO2 PRESRR P0000 T10941128
KBFD 050909Z AUTO 33009KT 2SM -SN BKN014 OVC022 M09/M13 A3003 RMK AO2 PRESRR P0000 T10891128
KBFD 050853Z AUTO 33011KT 3SM -SN BKN016 OVC022 M09/M13 A3001 RMK AO2 PK WND 33026/0800 UPB21E26SNE21B26 SLP187 P0000 60000 T10891128 55001
KBFD 050850Z AUTO 32012KT 2 1/2SM -SN BKN016 OVC022 M09/M13 A3000 RMK AO2 PK WND 33026/0800 UPB21E26SNE21B26 P0000
KBFD 050819Z AUTO 31013KT 5SM -SN SCT017 OVC024 M08/M13 A3002 RMK AO2 PK WND 33026/0800 P0000 T10831128
KBFD 050753Z AUTO 32013KT 2SM -SN OVC015 M08/M11 A3001 RMK AO2 SLP187 P0000 T10781111
KBFD 050736Z AUTO 33016KT 1 1/4SM -SN OVC015 M07/M11 A3000 RMK AO2 PRESRR P0000 T10721111
KBFD 050722Z AUTO 33014G19KT 1 1/2SM -SN BKN012 OVC022 M07/M10 A2997 RMK AO2 P0000 T10671100
KBFD 050715Z AUTO 32012KT 2SM -SN BKN014 OVC022 M07/M10 A2998 RMK AO2 P0000 T10671100
KBFD 050653Z AUTO 31014KT 5SM -SN BKN022 OVC026 M06/M11 A2997 RMK AO2 SNB01 SLP172 P0000 T10611106
KBFD 050553Z AUTO 31015KT 10SM BKN022 OVC029 M04/M10 A2996 RMK AO2 SLP168 60000 T10441100 11017 21044 53012
KBFD 050453Z AUTO 30012KT 6SM HZ OVC020 M03/M08 A2994 RMK AO2 SNB32E53 SLP160 P0000 T10331083 400281033
KBFD 050434Z AUTO 29011KT 6SM -SN BKN022 BKN027 OVC070 M03/M08 A2993 RMK AO2 SNB32 P0000 T10331083
KBFD 050353Z AUTO 29012G18KT 8SM OVC070 M03/M09 A2992 RMK AO2 UPB02E12SNE02 SLP153 P0000 T10331089
KBFD 050336Z AUTO 27011KT 8SM SCT023 OVC075 M03/M09 A2991 RMK AO2 UPB02E12SNE02 P0000 T10331089
KBFD 050300Z AUTO 28012G19KT 3SM -SN SCT016 OVC022 M03/M07 A2993 RMK AO2 P0000 T10331072
KBFD 050253Z AUTO 29014G20KT 2 1/2SM -SN BKN016 OVC022 M03/M07 A2993 RMK AO2 UPB27E37SNB44 SLP155 P0000 60000 T10331072 53018
KBFD 050153Z AUTO 28009KT 8SM BKN021 BKN026 OVC080 M02/M07 A2990 RMK AO2 SLP145 T10221072
KBFD 050053Z AUTO 30009KT 7SM OVC020 M02/M07 A2988 RMK AO2 SLP139 T10221067
KBFD 042353Z AUTO 28009G17KT 10SM SCT019 BKN025 OVC100 M02/M06 A2987 RMK AO2 SLP135 T10171061 10000 21017 53015
KBFD 042253Z AUTO 29008KT 9SM OVC019 M01/M05 A2984 RMK AO2 SLP121 T10111050
KBFD 042153Z AUTO 28009G16KT 9SM OVC020 M01/M05 A2984 RMK AO2 SLP123 T10061050
KBFD 042053Z AUTO 29008KT 9SM OVC019 00/M04 A2982 RMK AO2 SLP116 T00001044 51008
KBFD 041953Z AUTO 28008KT 10SM BKN018 OVC022 00/M04 A2982 RMK AO2 SLP115 T00001044